sensor_id;sensor_type;location;lat;lon;timestamp;pressure;altitude;pressure_sealevel;temperature;humidity
34979;BME280;21185;50.978;13.720;2023-05-15T00:01:30;97871.31;;;15.41;58.51
34979;BME280;21185;50.978;13.720;2023-05-15T00:06:32;97876.94;;;15.38;58.53
34979;BME280;21185;50.978;13.720;2023-05-15T00:11:34;97868.91;;;15.33;58.70
34979;BME280;21185;50.978;13.720;2023-05-15T00:16:36;97863.66;;;15.27;58.61
34979;BME280;21185;50.978;13.720;2023-05-15T00:21:38;97862.66;;;15.21;58.87
34979;BME280;21185;50.978;13.720;2023-05-15T00:26:40;97856.63;;;15.14;59.05
34979;BME280;21185;50.978;13.720;2023-05-15T00:31:42;97849.41;;;15.09;58.98
34979;BME280;21185;50.978;13.720;2023-05-15T00:36:44;97845.78;;;15.04;58.92
34979;BME280;21185;50.978;13.720;2023-05-15T00:41:46;97838.75;;;14.98;58.99
34979;BME280;21185;50.978;13.720;2023-05-15T00:46:58;97821.25;;;14.92;59.07
34979;BME280;21185;50.978;13.720;2023-05-15T00:52:03;97823.47;;;14.88;59.05
34979;BME280;21185;50.978;13.720;2023-05-15T00:57:09;97815.84;;;14.86;58.98
34979;BME280;21185;50.978;13.720;2023-05-15T01:02:16;97813.81;;;14.82;58.93
34979;BME280;21185;50.978;13.720;2023-05-15T01:07:20;97809.00;;;14.79;58.78
34979;BME280;21185;50.978;13.720;2023-05-15T01:12:23;97809.59;;;14.74;58.92
34979;BME280;21185;50.978;13.720;2023-05-15T01:17:27;97814.41;;;14.71;58.94
34979;BME280;21185;50.978;13.720;2023-05-15T01:28:07;97824.88;;;14.77;59.07
34979;BME280;21185;50.978;13.720;2023-05-15T01:38:40;97810.59;;;14.80;59.16
34979;BME280;21185;50.978;13.720;2023-05-15T01:43:44;97811.41;;;14.74;58.90
34979;BME280;21185;50.978;13.720;2023-05-15T01:48:48;97802.16;;;14.71;59.40
34979;BME280;21185;50.978;13.720;2023-05-15T01:53:52;97796.94;;;14.71;59.33
34979;BME280;21185;50.978;13.720;2023-05-15T01:58:58;97790.72;;;14.72;59.32
34979;BME280;21185;50.978;13.720;2023-05-15T02:04:02;97782.69;;;14.74;59.31
34979;BME280;21185;50.978;13.720;2023-05-15T02:09:05;97780.66;;;14.76;59.40
34979;BME280;21185;50.978;13.720;2023-05-15T02:14:10;97791.72;;;14.71;59.83
34979;BME280;21185;50.978;13.720;2023-05-15T02:19:13;97792.09;;;14.55;60.34
34979;BME280;21185;50.978;13.720;2023-05-15T02:24:15;97774.81;;;14.54;60.53
34979;BME280;21185;50.978;13.720;2023-05-15T02:29:19;97772.41;;;14.59;60.35
34979;BME280;21185;50.978;13.720;2023-05-15T02:39:48;97760.16;;;14.66;60.38
34979;BME280;21185;50.978;13.720;2023-05-15T02:44:54;97764.19;;;14.69;60.55
34979;BME280;21185;50.978;13.720;2023-05-15T02:49:58;97750.94;;;14.70;60.56
34979;BME280;21185;50.978;13.720;2023-05-15T02:55:00;97756.75;;;14.72;60.62
34979;BME280;21185;50.978;13.720;2023-05-15T03:00:02;97749.94;;;14.71;60.51
34979;BME280;21185;50.978;13.720;2023-05-15T03:05:07;97740.28;;;14.65;60.97
34979;BME280;21185;50.978;13.720;2023-05-15T03:10:09;97732.66;;;14.64;61.15
34979;BME280;21185;50.978;13.720;2023-05-15T03:15:12;97734.25;;;14.65;61.00
34979;BME280;21185;50.978;13.720;2023-05-15T03:20:14;97725.44;;;14.66;61.30
34979;BME280;21185;50.978;13.720;2023-05-15T03:25:17;97722.00;;;14.65;61.48
34979;BME280;21185;50.978;13.720;2023-05-15T03:30:19;97733.25;;;14.59;61.56
34979;BME280;21185;50.978;13.720;2023-05-15T03:35:20;97736.25;;;14.43;61.89
34979;BME280;21185;50.978;13.720;2023-05-15T03:40:22;97738.81;;;14.30;62.17
34979;BME280;21185;50.978;13.720;2023-05-15T03:45:24;97732.19;;;14.20;62.55
34979;BME280;21185;50.978;13.720;2023-05-15T03:50:27;97720.75;;;14.21;62.39
34979;BME280;21185;50.978;13.720;2023-05-15T03:55:32;97718.13;;;14.21;62.47
34979;BME280;21185;50.978;13.720;2023-05-15T04:00:36;97717.13;;;14.22;62.51
34979;BME280;21185;50.978;13.720;2023-05-15T04:05:38;97719.16;;;14.27;62.39
34979;BME280;21185;50.978;13.720;2023-05-15T04:10:40;97719.16;;;14.27;62.49
34979;BME280;21185;50.978;13.720;2023-05-15T04:15:42;97709.31;;;14.29;62.38
34979;BME280;21185;50.978;13.720;2023-05-15T04:20:44;97701.09;;;14.32;62.48
34979;BME280;21185;50.978;13.720;2023-05-15T04:25:46;97701.69;;;14.34;62.60
34979;BME280;21185;50.978;13.720;2023-05-15T04:30:49;97698.47;;;14.39;62.60
34979;BME280;21185;50.978;13.720;2023-05-15T04:35:51;97689.66;;;14.40;62.76
34979;BME280;21185;50.978;13.720;2023-05-15T04:40:53;97702.31;;;14.43;62.89
34979;BME280;21185;50.978;13.720;2023-05-15T04:45:59;97693.28;;;14.45;63.22
34979;BME280;21185;50.978;13.720;2023-05-15T04:51:01;97694.28;;;14.51;63.07
34979;BME280;21185;50.978;13.720;2023-05-15T04:56:03;97684.66;;;14.58;63.12
34979;BME280;21185;50.978;13.720;2023-05-15T05:01:31;97686.25;;;14.66;63.54
34979;BME280;21185;50.978;13.720;2023-05-15T05:06:33;97678.03;;;14.69;63.28
34979;BME280;21185;50.978;13.720;2023-05-15T05:11:35;97678.03;;;14.69;63.17
34979;BME280;21185;50.978;13.720;2023-05-15T05:16:40;97681.03;;;14.66;63.39
34979;BME280;21185;50.978;13.720;2023-05-15T05:21:42;97680.63;;;14.62;63.48
34979;BME280;21185;50.978;13.720;2023-05-15T05:26:44;97669.78;;;14.58;63.60
34979;BME280;21185;50.978;13.720;2023-05-15T05:31:46;97666.38;;;14.58;63.99
34979;BME280;21185;50.978;13.720;2023-05-15T05:36:49;97655.53;;;14.54;64.31
34979;BME280;21185;50.978;13.720;2023-05-15T05:41:54;97656.34;;;14.55;64.27
34979;BME280;21185;50.978;13.720;2023-05-15T05:46:55;97655.94;;;14.58;64.39
34979;BME280;21185;50.978;13.720;2023-05-15T05:52:05;97645.09;;;14.61;64.66
34979;BME280;21185;50.978;13.720;2023-05-15T05:57:08;97644.28;;;14.67;64.66
34979;BME280;21185;50.978;13.720;2023-05-15T06:02:10;97639.44;;;14.77;64.78
34979;BME280;21185;50.978;13.720;2023-05-15T06:07:14;97638.03;;;14.81;64.75
34979;BME280;21185;50.978;13.720;2023-05-15T06:12:17;97630.19;;;14.81;65.38
34979;BME280;21185;50.978;13.720;2023-05-15T06:17:24;97623.53;;;14.85;65.37
34979;BME280;21185;50.978;13.720;2023-05-15T06:22:26;97624.56;;;14.84;65.64
34979;BME280;21185;50.978;13.720;2023-05-15T06:27:31;97620.53;;;14.88;65.81
34979;BME280;21185;50.978;13.720;2023-05-15T06:32:33;97618.50;;;14.97;65.72
34979;BME280;21185;50.978;13.720;2023-05-15T06:37:37;97617.66;;;15.03;65.75
34979;BME280;21185;50.978;13.720;2023-05-15T06:42:39;97617.47;;;15.05;65.91
34979;BME280;21185;50.978;13.720;2023-05-15T06:47:41;97614.44;;;15.08;66.16
34979;BME280;21185;50.978;13.720;2023-05-15T06:52:43;97606.59;;;15.08;66.07
34979;BME280;21185;50.978;13.720;2023-05-15T06:57:45;97607.00;;;15.11;66.06
34979;BME280;21185;50.978;13.720;2023-05-15T07:02:47;97599.53;;;15.15;66.24
34979;BME280;21185;50.978;13.720;2023-05-15T07:07:49;97599.91;;;15.25;65.87
34979;BME280;21185;50.978;13.720;2023-05-15T07:12:54;97585.19;;;15.31;65.96
34979;BME280;21185;50.978;13.720;2023-05-15T07:17:57;97590.81;;;15.34;65.54
34979;BME280;21185;50.978;13.720;2023-05-15T07:22:59;97585.72;;;15.46;65.47
34979;BME280;21185;50.978;13.720;2023-05-15T07:28:01;97587.63;;;15.64;65.40
34979;BME280;21185;50.978;13.720;2023-05-15T07:33:03;97585.69;;;15.84;65.24
34979;BME280;21185;50.978;13.720;2023-05-15T07:38:05;97590.22;;;15.95;64.98
34979;BME280;21185;50.978;13.720;2023-05-15T07:43:08;97587.34;;;16.03;64.89
34979;BME280;21185;50.978;13.720;2023-05-15T07:48:16;97578.09;;;16.01;64.81
34979;BME280;21185;50.978;13.720;2023-05-15T07:53:23;97583.28;;;16.07;64.76
34979;BME280;21185;50.978;13.720;2023-05-15T07:58:33;97575.59;;;16.12;64.66
34979;BME280;21185;50.978;13.720;2023-05-15T08:03:39;97566.53;;;16.15;64.24
34979;BME280;21185;50.978;13.720;2023-05-15T08:08:41;97571.47;;;16.23;64.43
34979;BME280;21185;50.978;13.720;2023-05-15T08:13:44;97562.63;;;16.24;64.09
34979;BME280;21185;50.978;13.720;2023-05-15T08:18:47;97561.97;;;16.29;63.87
34979;BME280;21185;50.978;13.720;2023-05-15T08:23:54;97556.50;;;16.30;63.79
34979;BME280;21185;50.978;13.720;2023-05-15T08:28:56;97557.31;;;16.31;63.79
34979;BME280;21185;50.978;13.720;2023-05-15T08:33:58;97557.31;;;16.31;63.98
34979;BME280;21185;50.978;13.720;2023-05-15T08:39:00;97563.28;;;16.38;63.64
34979;BME280;21185;50.978;13.720;2023-05-15T08:44:04;97563.66;;;16.41;63.67
34979;BME280;21185;50.978;13.720;2023-05-15T08:49:19;97557.25;;;16.37;63.71
34979;BME280;21185;50.978;13.720;2023-05-15T08:54:24;97544.53;;;16.41;63.74
34979;BME280;21185;50.978;13.720;2023-05-15T08:59:26;97556.75;;;16.47;63.66
34979;BME280;21185;50.978;13.720;2023-05-15T09:04:28;97558.06;;;16.38;63.46
34979;BME280;21185;50.978;13.720;2023-05-15T09:09:32;97554.84;;;16.36;63.53
34979;BME280;21185;50.978;13.720;2023-05-15T09:14:35;97553.19;;;16.41;63.73
34979;BME280;21185;50.978;13.720;2023-05-15T09:19:38;97546.34;;;16.40;63.67
34979;BME280;21185;50.978;13.720;2023-05-15T09:24:43;97548.31;;;16.45;63.26
34979;BME280;21185;50.978;13.720;2023-05-15T09:29:49;97545.47;;;16.46;63.07
34979;BME280;21185;50.978;13.720;2023-05-15T09:34:55;97538.00;;;16.50;63.01
34979;BME280;21185;50.978;13.720;2023-05-15T09:40:07;97540.31;;;16.58;63.18
34979;BME280;21185;50.978;13.720;2023-05-15T09:45:16;97537.72;;;16.76;62.67
34979;BME280;21185;50.978;13.720;2023-05-15T09:50:23;97536.41;;;17.04;62.63
34979;BME280;21185;50.978;13.720;2023-05-15T09:55:25;97534.91;;;17.26;61.79
34979;BME280;21185;50.978;13.720;2023-05-15T10:00:29;97534.25;;;17.42;61.62
34979;BME280;21185;50.978;13.720;2023-05-15T10:05:33;97532.47;;;17.55;61.49
34979;BME280;21185;50.978;13.720;2023-05-15T10:10:46;97529.41;;;17.58;61.21
34979;BME280;21185;50.978;13.720;2023-05-15T10:15:50;97529.63;;;17.56;60.81
34979;BME280;21185;50.978;13.720;2023-05-15T10:20:53;97531.56;;;17.61;61.12
34979;BME280;21185;50.978;13.720;2023-05-15T10:25:59;97519.44;;;17.78;60.95
34979;BME280;21185;50.978;13.720;2023-05-15T10:31:04;97521.75;;;17.98;60.50
34979;BME280;21185;50.978;13.720;2023-05-15T10:36:08;97519.56;;;18.06;59.78
34979;BME280;21185;50.978;13.720;2023-05-15T10:41:11;97518.44;;;18.14;59.86
34979;BME280;21185;50.978;13.720;2023-05-15T10:46:20;97518.53;;;18.19;59.46
34979;BME280;21185;50.978;13.720;2023-05-15T10:51:25;97511.00;;;18.23;58.82
34979;BME280;21185;50.978;13.720;2023-05-15T10:56:33;97507.13;;;18.25;58.45
34979;BME280;21185;50.978;13.720;2023-05-15T11:01:39;97503.69;;;18.36;58.21
34979;BME280;21185;50.978;13.720;2023-05-15T11:06:44;97494.41;;;18.57;57.38
34979;BME280;21185;50.978;13.720;2023-05-15T11:27:01;97455.25;;;18.96;56.10
34979;BME280;21185;50.978;13.720;2023-05-15T11:32:30;97477.22;;;18.90;55.82
34979;BME280;21185;50.978;13.720;2023-05-15T11:37:39;97480.50;;;18.45;55.52
34979;BME280;21185;50.978;13.720;2023-05-15T11:42:57;97497.41;;;17.79;57.17
34979;BME280;21185;50.978;13.720;2023-05-15T11:48:00;97498.38;;;17.13;58.53
34979;BME280;21185;50.978;13.720;2023-05-15T11:53:07;97499.91;;;16.72;59.72
34979;BME280;21185;50.978;13.720;2023-05-15T11:58:12;97510.78;;;16.51;60.82
34979;BME280;21185;50.978;13.720;2023-05-15T12:03:17;97509.75;;;16.34;62.27
34979;BME280;21185;50.978;13.720;2023-05-15T12:08:20;97495.06;;;16.14;62.76
34979;BME280;21185;50.978;13.720;2023-05-15T12:13:23;97475.72;;;16.15;62.67
34979;BME280;21185;50.978;13.720;2023-05-15T12:18:25;97477.63;;;16.27;62.96
34979;BME280;21185;50.978;13.720;2023-05-15T12:23:27;97478.84;;;16.42;63.06
34979;BME280;21185;50.978;13.720;2023-05-15T12:28:31;97468.72;;;16.64;63.34
34979;BME280;21185;50.978;13.720;2023-05-15T12:33:34;97471.63;;;16.93;63.14
34979;BME280;21185;50.978;13.720;2023-05-15T12:38:36;97459.22;;;17.30;63.46
34979;BME280;21185;50.978;13.720;2023-05-15T12:43:38;97461.31;;;17.63;63.41
34979;BME280;21185;50.978;13.720;2023-05-15T12:48:40;97451.66;;;17.87;63.38
34979;BME280;21185;50.978;13.720;2023-05-15T12:53:42;97440.59;;;17.96;64.10
34979;BME280;21185;50.978;13.720;2023-05-15T12:58:46;97435.47;;;18.01;64.52
34979;BME280;21185;50.978;13.720;2023-05-15T13:03:54;97437.41;;;17.94;64.88
34979;BME280;21185;50.978;13.720;2023-05-15T13:08:57;97428.97;;;17.92;64.83
34979;BME280;21185;50.978;13.720;2023-05-15T13:13:59;97427.69;;;17.95;64.40
34979;BME280;21185;50.978;13.720;2023-05-15T13:19:01;97421.75;;;18.11;64.42
34979;BME280;21185;50.978;13.720;2023-05-15T13:24:03;97416.59;;;18.28;62.91
34979;BME280;21185;50.978;13.720;2023-05-15T13:29:05;97402.06;;;18.37;60.94
34979;BME280;21185;50.978;13.720;2023-05-15T13:34:07;97394.69;;;18.62;60.57
34979;BME280;21185;50.978;13.720;2023-05-15T13:39:10;97401.63;;;18.68;59.31
34979;BME280;21185;50.978;13.720;2023-05-15T13:44:24;97399.28;;;18.84;58.64
34979;BME280;21185;50.978;13.720;2023-05-15T13:49:25;97392.69;;;18.98;57.46
34979;BME280;21185;50.978;13.720;2023-05-15T13:54:27;97384.28;;;19.13;56.49
34979;BME280;21185;50.978;13.720;2023-05-15T13:59:30;97385.16;;;19.18;56.48
34979;BME280;21185;50.978;13.720;2023-05-15T14:04:32;97399.00;;;19.14;57.87
34979;BME280;21185;50.978;13.720;2023-05-15T14:09:34;97381.00;;;19.22;57.75
34979;BME280;21185;50.978;13.720;2023-05-15T14:14:36;97379.91;;;19.18;58.46
34979;BME280;21185;50.978;13.720;2023-05-15T14:19:39;97385.94;;;19.02;58.52
34979;BME280;21185;50.978;13.720;2023-05-15T14:24:41;97392.78;;;19.03;58.32
34979;BME280;21185;50.978;13.720;2023-05-15T14:29:43;97383.09;;;19.20;58.45
34979;BME280;21185;50.978;13.720;2023-05-15T14:34:45;97383.56;;;19.34;57.93
34979;BME280;21185;50.978;13.720;2023-05-15T14:39:47;97397.50;;;19.18;58.34
34979;BME280;21185;50.978;13.720;2023-05-15T14:44:49;97401.88;;;18.95;58.56
34979;BME280;21185;50.978;13.720;2023-05-15T14:49:51;97407.88;;;18.79;58.68
34979;BME280;21185;50.978;13.720;2023-05-15T14:54:53;97398.22;;;18.68;59.03
34979;BME280;21185;50.978;13.720;2023-05-15T15:00:09;97391.16;;;18.57;58.59
34979;BME280;21185;50.978;13.720;2023-05-15T15:05:11;97390.03;;;18.53;59.02
34979;BME280;21185;50.978;13.720;2023-05-15T15:10:13;97402.81;;;18.49;59.12
34979;BME280;21185;50.978;13.720;2023-05-15T15:15:15;97404.78;;;18.42;59.53
34979;BME280;21185;50.978;13.720;2023-05-15T15:20:19;97403.19;;;18.41;59.12
34979;BME280;21185;50.978;13.720;2023-05-15T15:25:22;97401.22;;;18.48;58.75
34979;BME280;21185;50.978;13.720;2023-05-15T15:30:24;97395.59;;;18.56;58.46
34979;BME280;21185;50.978;13.720;2023-05-15T15:35:27;97400.28;;;18.66;57.72
34979;BME280;21185;50.978;13.720;2023-05-15T15:40:28;97406.53;;;18.76;57.65
34979;BME280;21185;50.978;13.720;2023-05-15T15:45:30;97404.44;;;18.79;56.78
34979;BME280;21185;50.978;13.720;2023-05-15T15:50:32;97397.94;;;18.81;55.04
34979;BME280;21185;50.978;13.720;2023-05-15T15:55:35;97405.56;;;18.83;54.20
34979;BME280;21185;50.978;13.720;2023-05-15T16:00:37;97428.16;;;18.67;53.34
34979;BME280;21185;50.978;13.720;2023-05-15T16:05:42;97445.31;;;18.46;53.44
34979;BME280;21185;50.978;13.720;2023-05-15T16:10:43;97459.97;;;18.19;53.99
34979;BME280;21185;50.978;13.720;2023-05-15T16:15:45;97470.16;;;17.92;55.70
34979;BME280;21185;50.978;13.720;2023-05-15T16:20:50;97469.91;;;17.70;56.34
34979;BME280;21185;50.978;13.720;2023-05-15T16:25:52;97464.16;;;17.61;57.23
34979;BME280;21185;50.978;13.720;2023-05-15T16:30:54;97450.72;;;17.58;57.76
34979;BME280;21185;50.978;13.720;2023-05-15T16:35:57;97454.94;;;17.59;57.83
34979;BME280;21185;50.978;13.720;2023-05-15T16:40:59;97446.59;;;17.62;58.04
34979;BME280;21185;50.978;13.720;2023-05-15T16:46:01;97450.97;;;17.68;58.41
34979;BME280;21185;50.978;13.720;2023-05-15T16:51:03;97454.41;;;17.68;58.56
34979;BME280;21185;50.978;13.720;2023-05-15T16:56:05;97468.16;;;17.64;58.32
34979;BME280;21185;50.978;13.720;2023-05-15T17:01:08;97479.13;;;17.61;58.07
34979;BME280;21185;50.978;13.720;2023-05-15T17:06:10;97484.59;;;17.59;58.13
34979;BME280;21185;50.978;13.720;2023-05-15T17:11:11;97495.75;;;17.55;58.09
34979;BME280;21185;50.978;13.720;2023-05-15T17:16:14;97492.44;;;17.47;57.93
34979;BME280;21185;50.978;13.720;2023-05-15T17:21:15;97489.69;;;17.42;58.08
34979;BME280;21185;50.978;13.720;2023-05-15T17:26:17;97493.31;;;17.41;58.27
34979;BME280;21185;50.978;13.720;2023-05-15T17:31:19;97496.75;;;17.42;57.99
34979;BME280;21185;50.978;13.720;2023-05-15T17:36:21;97488.09;;;17.41;57.70
34979;BME280;21185;50.978;13.720;2023-05-15T17:41:23;97495.94;;;17.41;57.81
34979;BME280;21185;50.978;13.720;2023-05-15T17:46:25;97496.31;;;17.45;58.10
34979;BME280;21185;50.978;13.720;2023-05-15T17:51:27;97508.16;;;17.47;58.13
34979;BME280;21185;50.978;13.720;2023-05-15T17:56:29;97514.44;;;17.46;57.89
34979;BME280;21185;50.978;13.720;2023-05-15T18:01:31;97521.59;;;17.39;57.49
34979;BME280;21185;50.978;13.720;2023-05-15T18:06:33;97524.88;;;17.35;57.56
34979;BME280;21185;50.978;13.720;2023-05-15T18:11:35;97538.66;;;17.30;57.50
34979;BME280;21185;50.978;13.720;2023-05-15T18:16:37;97549.81;;;17.26;57.63
34979;BME280;21185;50.978;13.720;2023-05-15T18:21:39;97551.50;;;17.20;57.79
34979;BME280;21185;50.978;13.720;2023-05-15T18:26:41;97566.09;;;17.16;57.31
34979;BME280;21185;50.978;13.720;2023-05-15T18:31:43;97563.31;;;17.11;57.33
34979;BME280;21185;50.978;13.720;2023-05-15T18:36:46;97555.09;;;17.07;57.04
34979;BME280;21185;50.978;13.720;2023-05-15T18:41:50;97553.50;;;17.06;57.37
34979;BME280;21185;50.978;13.720;2023-05-15T18:46:53;97554.97;;;17.02;57.21
34979;BME280;21185;50.978;13.720;2023-05-15T18:51:55;97557.22;;;16.99;57.06
34979;BME280;21185;50.978;13.720;2023-05-15T18:56:58;97568.59;;;16.93;57.40
34979;BME280;21185;50.978;13.720;2023-05-15T19:02:00;97570.91;;;16.82;57.74
34979;BME280;21185;50.978;13.720;2023-05-15T19:07:03;97568.59;;;16.74;57.38
34979;BME280;21185;50.978;13.720;2023-05-15T19:12:05;97577.31;;;16.68;57.64
34979;BME280;21185;50.978;13.720;2023-05-15T19:17:07;97585.22;;;16.62;57.64
34979;BME280;21185;50.978;13.720;2023-05-15T19:22:09;97591.91;;;16.58;57.70
34979;BME280;21185;50.978;13.720;2023-05-15T19:27:12;97599.59;;;16.52;57.72
34979;BME280;21185;50.978;13.720;2023-05-15T19:32:14;97600.63;;;16.51;57.92
34979;BME280;21185;50.978;13.720;2023-05-15T19:37:16;97605.28;;;16.49;58.16
34979;BME280;21185;50.978;13.720;2023-05-15T19:42:18;97605.50;;;16.48;58.21
34979;BME280;21185;50.978;13.720;2023-05-15T19:47:20;97603.53;;;16.43;58.22
34979;BME280;21185;50.978;13.720;2023-05-15T19:52:22;97618.84;;;16.40;58.45
34979;BME280;21185;50.978;13.720;2023-05-15T19:57:25;97608.22;;;16.35;58.79
34979;BME280;21185;50.978;13.720;2023-05-15T20:02:27;97614.09;;;16.30;58.99
34979;BME280;21185;50.978;13.720;2023-05-15T20:07:29;97621.00;;;16.25;58.97
34979;BME280;21185;50.978;13.720;2023-05-15T20:12:31;97633.34;;;16.17;58.77
34979;BME280;21185;50.978;13.720;2023-05-15T20:17:32;97638.19;;;16.14;58.47
34979;BME280;21185;50.978;13.720;2023-05-15T20:22:34;97633.97;;;16.13;58.45
34979;BME280;21185;50.978;13.720;2023-05-15T20:27:36;97632.59;;;16.10;58.35
34979;BME280;21185;50.978;13.720;2023-05-15T20:32:38;97638.03;;;16.09;58.10
34979;BME280;21185;50.978;13.720;2023-05-15T20:37:41;97643.47;;;16.07;58.23
34979;BME280;21185;50.978;13.720;2023-05-15T20:42:43;97642.88;;;16.05;58.07
34979;BME280;21185;50.978;13.720;2023-05-15T20:47:48;97646.94;;;16.01;58.18
34979;BME280;21185;50.978;13.720;2023-05-15T20:52:49;97638.50;;;15.99;57.81
34979;BME280;21185;50.978;13.720;2023-05-15T20:57:52;97635.28;;;15.97;57.92
34979;BME280;21185;50.978;13.720;2023-05-15T21:02:54;97632.09;;;15.95;57.69
34979;BME280;21185;50.978;13.720;2023-05-15T21:07:56;97620.03;;;15.94;57.57
34979;BME280;21185;50.978;13.720;2023-05-15T21:12:58;97614.78;;;15.94;57.38
34979;BME280;21185;50.978;13.720;2023-05-15T21:18:00;97619.59;;;15.97;57.37
34979;BME280;21185;50.978;13.720;2023-05-15T21:23:02;97626.66;;;15.97;57.53
34979;BME280;21185;50.978;13.720;2023-05-15T21:28:04;97623.44;;;15.95;57.62
34979;BME280;21185;50.978;13.720;2023-05-15T21:33:06;97619.44;;;15.92;57.49
34979;BME280;21185;50.978;13.720;2023-05-15T21:38:08;97636.56;;;15.88;57.67
34979;BME280;21185;50.978;13.720;2023-05-15T21:43:09;97642.44;;;15.83;57.75
34979;BME280;21185;50.978;13.720;2023-05-15T21:48:11;97638.84;;;15.78;57.71
34979;BME280;21185;50.978;13.720;2023-05-15T21:53:13;97647.09;;;15.75;57.76
34979;BME280;21185;50.978;13.720;2023-05-15T21:58:15;97645.94;;;15.71;57.97
34979;BME280;21185;50.978;13.720;2023-05-15T22:03:18;97645.53;;;15.67;58.38
34979;BME280;21185;50.978;13.720;2023-05-15T22:08:21;97653.00;;;15.64;58.21
34979;BME280;21185;50.978;13.720;2023-05-15T22:13:23;97658.88;;;15.59;58.46
34979;BME280;21185;50.978;13.720;2023-05-15T22:18:25;97655.84;;;15.55;58.47
34979;BME280;21185;50.978;13.720;2023-05-15T22:23:35;97661.50;;;15.52;58.78
34979;BME280;21185;50.978;13.720;2023-05-15T22:28:37;97664.53;;;15.49;58.76
34979;BME280;21185;50.978;13.720;2023-05-15T22:33:39;97667.34;;;15.48;58.85
34979;BME280;21185;50.978;13.720;2023-05-15T22:38:41;97666.97;;;15.44;59.03
34979;BME280;21185;50.978;13.720;2023-05-15T22:43:43;97678.84;;;15.40;59.19
34979;BME280;21185;50.978;13.720;2023-05-15T22:48:45;97687.09;;;15.37;59.02
34979;BME280;21185;50.978;13.720;2023-05-15T22:53:47;97692.75;;;15.34;59.20
34979;BME280;21185;50.978;13.720;2023-05-15T22:58:48;97690.75;;;15.30;59.11
34979;BME280;21185;50.978;13.720;2023-05-15T23:03:51;97692.97;;;15.26;59.24
34979;BME280;21185;50.978;13.720;2023-05-15T23:08:52;97693.19;;;15.25;59.39
34979;BME280;21185;50.978;13.720;2023-05-15T23:14:00;97693.19;;;15.18;59.33
34979;BME280;21185;50.978;13.720;2023-05-15T23:19:03;97699.03;;;15.13;59.53
34979;BME280;21185;50.978;13.720;2023-05-15T23:24:05;97696.03;;;15.10;59.56
34979;BME280;21185;50.978;13.720;2023-05-15T23:29:07;97706.09;;;15.06;59.87
34979;BME280;21185;50.978;13.720;2023-05-15T23:34:09;97707.50;;;15.02;59.91
34979;BME280;21185;50.978;13.720;2023-05-15T23:39:11;97720.97;;;14.99;60.06
34979;BME280;21185;50.978;13.720;2023-05-15T23:44:13;97718.97;;;14.95;60.14
34979;BME280;21185;50.978;13.720;2023-05-15T23:49:14;97713.16;;;14.93;60.20
34979;BME280;21185;50.978;13.720;2023-05-15T23:54:16;97711.16;;;14.88;60.30
34979;BME280;21185;50.978;13.720;2023-05-15T23:59:18;97713.38;;;14.84;60.42
